createdAt,value
2023-04-10T00:00:45.836Z,48.39
2023-04-10T00:03:25.607Z,48.48
2023-04-10T00:05:57.613Z,48.42
2023-04-10T00:08:28.355Z,48.45
2023-04-10T00:10:59.254Z,48.51
2023-04-10T00:13:30.130Z,48.48
2023-04-10T00:16:01.342Z,48.77
2023-04-10T00:18:32.131Z,48.91
2023-04-10T00:21:02.911Z,48.67
2023-04-10T00:23:34.890Z,48.70
2023-04-10T00:26:05.900Z,48.96
2023-04-10T00:28:38.322Z,48.94
2023-04-10T00:31:09.130Z,49.04
2023-04-10T00:33:39.938Z,48.97
2023-04-10T00:36:10.927Z,49.17
2023-04-10T00:38:42.229Z,49.11
2023-04-10T00:41:13.049Z,49.05
2023-04-10T00:43:43.917Z,49.08
2023-04-10T00:46:14.760Z,49.43
2023-04-10T00:48:45.694Z,49.31
2023-04-10T00:51:16.574Z,49.22
2023-04-10T00:53:47.446Z,49.31
2023-04-10T00:56:18.348Z,49.40
2023-04-10T00:58:49.248Z,49.28
2023-04-10T01:01:20.174Z,49.41
2023-04-10T01:03:51.075Z,49.52
2023-04-10T01:06:32.685Z,49.39
2023-04-10T01:09:07.360Z,49.28
2023-04-10T01:11:41.238Z,49.54
2023-04-10T01:14:13.980Z,49.50
2023-04-10T01:16:46.646Z,49.57
2023-04-10T01:19:20.399Z,49.64
2023-04-10T01:21:51.538Z,49.76
2023-04-10T01:24:26.219Z,49.75
2023-04-10T01:27:03.081Z,49.62
2023-04-10T01:29:34.116Z,49.89
2023-04-10T01:32:05.521Z,49.94
2023-04-10T01:34:38.210Z,49.98
2023-04-10T01:37:10.244Z,49.97
2023-04-10T01:39:41.409Z,50.24
2023-04-10T01:42:12.476Z,50.20
2023-04-10T01:44:44.145Z,50.25
2023-04-10T01:47:14.898Z,50.31
2023-04-10T01:49:46.770Z,50.15
2023-04-10T01:52:17.519Z,50.29
2023-04-10T01:54:48.751Z,50.30
2023-04-10T01:57:19.509Z,50.31
2023-04-10T01:59:50.812Z,50.49
2023-04-10T02:02:21.686Z,50.42
2023-04-10T02:04:52.615Z,50.58
2023-04-10T02:07:24.237Z,50.37
2023-04-10T02:09:57.172Z,50.60
2023-04-10T02:12:30.185Z,50.68
2023-04-10T02:15:01.517Z,50.62
2023-04-10T02:17:32.907Z,50.70
2023-04-10T02:20:04.342Z,50.66
2023-04-10T02:22:35.511Z,50.73
2023-04-10T02:25:07.512Z,50.70
2023-04-10T02:27:38.512Z,50.76
2023-04-10T02:30:10.370Z,50.76
2023-04-10T02:32:42.186Z,50.77
2023-04-10T02:35:13.223Z,50.96
2023-04-10T02:37:44.036Z,50.95
2023-04-10T02:40:14.908Z,50.97
2023-04-10T02:42:45.734Z,50.96
2023-04-10T02:45:16.604Z,51.09
2023-04-10T02:47:47.488Z,51.08
2023-04-10T02:50:18.292Z,51.12
2023-04-10T02:52:49.116Z,50.94
2023-04-10T02:55:20.013Z,51.22
2023-04-10T02:57:51.552Z,51.13
2023-04-10T03:00:23.163Z,51.13
2023-04-10T03:02:54.780Z,51.10
2023-04-10T03:05:25.548Z,51.09
2023-04-10T03:07:56.513Z,51.20
2023-04-10T03:10:27.120Z,51.13
2023-04-10T03:12:57.732Z,51.28
2023-04-10T03:15:28.501Z,51.31
2023-04-10T03:17:59.163Z,51.33
2023-04-10T03:20:29.863Z,51.38
2023-04-10T03:23:00.808Z,51.30
2023-04-10T03:25:32.330Z,51.29
2023-04-10T03:28:03.013Z,51.45
2023-04-10T03:30:35.373Z,51.48
2023-04-10T03:33:06.172Z,51.52
2023-04-10T03:35:36.846Z,51.47
2023-04-10T03:38:07.711Z,51.56
2023-04-10T03:40:38.635Z,51.68
2023-04-10T03:43:09.298Z,51.58
2023-04-10T03:45:40.513Z,51.58
2023-04-10T03:48:11.187Z,51.60
2023-04-10T03:50:41.945Z,51.73
2023-04-10T03:53:12.775Z,51.49
2023-04-10T03:55:43.528Z,51.84
2023-04-10T03:58:14.341Z,51.72
2023-04-10T04:00:45.274Z,51.60
2023-04-10T04:03:16.229Z,51.76
2023-04-10T04:05:47.259Z,51.58
2023-04-10T04:08:18.113Z,51.74
2023-04-10T04:10:48.786Z,51.91
2023-04-10T04:13:19.436Z,51.79
2023-04-10T04:15:50.124Z,51.77
2023-04-10T04:18:20.861Z,52.05
2023-04-10T04:20:51.657Z,51.89
2023-04-10T04:23:22.282Z,51.92
2023-04-10T04:25:54.438Z,52.00
2023-04-10T04:28:25.345Z,52.05
2023-04-10T04:30:56.226Z,51.86
2023-04-10T04:33:27.124Z,51.89
2023-04-10T04:35:58.027Z,51.98
2023-04-10T04:38:29.003Z,52.01
2023-04-10T04:40:59.868Z,51.98
2023-04-10T04:43:30.754Z,52.07
2023-04-10T04:46:01.589Z,52.03
2023-04-10T04:48:32.412Z,52.17
2023-04-10T04:51:03.208Z,52.07
2023-04-10T04:53:33.929Z,52.01
2023-04-10T04:56:05.154Z,52.04
2023-04-10T04:58:35.893Z,52.06
2023-04-10T05:01:07.190Z,51.99
2023-04-10T05:03:38.274Z,52.08
2023-04-10T05:06:09.265Z,52.21
2023-04-10T05:08:39.976Z,51.99
2023-04-10T05:11:10.843Z,51.99
2023-04-10T05:13:41.703Z,52.22
2023-04-10T05:16:12.454Z,52.08
2023-04-10T05:18:43.455Z,52.10
2023-04-10T05:21:14.223Z,52.06
2023-04-10T05:23:45.058Z,52.30
2023-04-10T05:26:15.948Z,52.19
2023-04-10T05:28:46.844Z,52.43
2023-04-10T05:31:17.741Z,52.05
2023-04-10T05:33:48.666Z,52.10
2023-04-10T05:36:19.639Z,52.06
2023-04-10T05:38:50.612Z,52.10
2023-04-10T05:41:21.990Z,52.01
2023-04-10T05:43:52.866Z,51.78
2023-04-10T05:46:23.589Z,51.97
2023-04-10T05:48:54.722Z,51.93
2023-04-10T05:51:26.326Z,51.68
2023-04-10T05:53:57.120Z,51.81
2023-04-10T05:56:27.898Z,51.62
2023-04-10T05:58:58.684Z,51.41
2023-04-10T06:01:29.539Z,51.47
2023-04-10T06:04:00.588Z,51.58
2023-04-10T06:06:31.489Z,51.46
2023-04-10T06:09:02.216Z,51.34
2023-04-10T06:11:32.973Z,51.50
2023-04-10T06:14:03.751Z,51.34
2023-04-10T06:16:34.606Z,51.29
2023-04-10T06:19:05.569Z,51.12
2023-04-10T06:21:36.389Z,51.17
2023-04-10T06:24:07.850Z,51.02
2023-04-10T06:26:38.495Z,51.08
2023-04-10T06:29:09.233Z,51.07
2023-04-10T06:31:40.194Z,50.97
2023-04-10T06:34:10.897Z,51.01
2023-04-10T06:36:41.770Z,50.92
2023-04-10T06:39:12.540Z,50.86
2023-04-10T06:41:43.164Z,50.87
2023-04-10T06:44:13.979Z,50.72
2023-04-10T06:46:44.913Z,50.61
2023-04-10T06:49:15.659Z,50.60
2023-04-10T06:51:48.341Z,50.70
2023-04-10T06:54:19.330Z,50.61
2023-04-10T06:56:50.122Z,50.44
2023-04-10T06:59:20.836Z,50.44
2023-04-10T07:01:51.459Z,50.46
2023-04-10T07:04:22.211Z,50.30
2023-04-10T07:06:52.993Z,50.43
2023-04-10T07:09:23.949Z,50.48
2023-04-10T07:11:54.685Z,50.24
2023-04-10T07:14:25.408Z,50.13
2023-04-10T07:16:56.175Z,50.12
2023-04-10T07:19:27.266Z,49.92
2023-04-10T07:21:58.042Z,50.02
2023-04-10T07:24:29.258Z,49.92
2023-04-10T07:27:01.650Z,50.01
2023-04-10T07:29:32.363Z,49.72
2023-04-10T07:32:03.338Z,49.28
2023-04-10T07:34:34.196Z,49.41
2023-04-10T07:37:05.021Z,49.55
2023-04-10T07:39:35.968Z,49.52
2023-04-10T07:42:08.413Z,49.48
2023-04-10T07:44:39.095Z,49.60
2023-04-10T07:47:09.911Z,49.54
2023-04-10T07:49:41.317Z,49.48
2023-04-10T07:52:12.228Z,49.41
2023-04-10T07:54:43.055Z,49.32
2023-04-10T07:57:13.867Z,49.07
2023-04-10T07:59:44.549Z,48.97
2023-04-10T08:02:15.598Z,48.87
2023-04-10T08:04:46.486Z,48.50
2023-04-10T08:07:17.249Z,48.56
2023-04-10T08:09:47.962Z,48.42
2023-04-10T08:12:18.674Z,48.47
2023-04-10T08:14:51.644Z,48.27
2023-04-10T08:17:22.377Z,48.31
2023-04-10T08:19:53.076Z,48.39
2023-04-10T08:22:23.879Z,48.24
2023-04-10T08:24:54.677Z,48.00
2023-04-10T08:27:25.410Z,47.68
2023-04-10T08:29:56.192Z,47.70
2023-04-10T08:32:27.743Z,47.86
2023-04-10T08:34:58.526Z,47.90
2023-04-10T08:37:29.163Z,47.70
2023-04-10T08:40:00.326Z,47.43
2023-04-10T08:42:32.223Z,47.44
2023-04-10T08:45:04.279Z,47.33
2023-04-10T08:47:35.486Z,47.16
2023-04-10T08:50:07.552Z,47.05
2023-04-10T08:52:39.213Z,47.13
2023-04-10T08:55:11.024Z,46.91
2023-04-10T08:57:45.211Z,46.72
2023-04-10T09:00:23.322Z,46.80
2023-04-10T09:02:58.451Z,46.73
2023-04-10T09:05:29.953Z,46.61
2023-04-10T09:08:00.583Z,46.31
2023-04-10T09:10:31.458Z,46.22
2023-04-10T09:13:04.112Z,46.01
2023-04-10T09:15:39.093Z,45.95
2023-04-10T09:18:11.253Z,45.59
2023-04-10T09:20:43.049Z,45.72
2023-04-10T09:23:23.490Z,45.83
2023-04-10T09:25:55.082Z,45.65
2023-04-10T09:28:26.839Z,44.86
2023-04-10T09:30:58.191Z,44.78
2023-04-10T09:33:30.733Z,44.78
2023-04-10T09:36:05.085Z,44.45
2023-04-10T09:38:37.461Z,44.53
2023-04-10T09:45:03.074Z,44.16
2023-04-10T09:47:35.162Z,44.10
2023-04-10T09:50:07.077Z,44.19
2023-04-10T09:52:40.078Z,44.00
2023-04-10T09:55:12.073Z,43.92
2023-04-10T09:57:44.080Z,43.44
2023-04-10T10:00:17.079Z,43.27
2023-04-10T10:02:49.251Z,42.95
2023-04-10T10:05:20.469Z,42.66
2023-04-10T10:07:52.289Z,42.80
2023-04-10T10:10:24.031Z,42.41
2023-04-10T10:19:03.083Z,41.74
2023-04-10T10:21:34.428Z,42.03
2023-04-10T10:24:05.296Z,41.40
2023-04-10T10:26:36.233Z,41.57
2023-04-10T10:29:10.727Z,41.56
2023-04-10T10:31:41.702Z,41.42
2023-04-10T10:34:12.650Z,41.04
2023-04-10T10:36:43.586Z,41.40
2023-04-10T10:39:18.841Z,40.62
2023-04-10T10:41:52.193Z,40.47
2023-04-10T10:44:25.055Z,40.53
2023-04-10T10:46:59.603Z,40.30
2023-04-10T10:49:43.862Z,40.54
2023-04-10T10:52:14.677Z,39.66
2023-04-10T10:54:53.790Z,39.82
2023-04-10T10:57:49.112Z,39.69
2023-04-10T11:00:20.113Z,39.79
2023-04-10T11:02:59.306Z,39.60
2023-04-10T11:05:43.480Z,39.03
2023-04-10T11:08:14.283Z,38.77
2023-04-10T11:11:05.329Z,38.94
2023-04-10T11:13:36.536Z,38.90
2023-04-10T11:16:08.339Z,38.87
2023-04-10T11:19:13.819Z,38.97
2023-04-10T11:22:05.824Z,38.52
2023-04-10T11:24:56.409Z,38.37
2023-04-10T11:27:56.055Z,38.21
2023-04-10T11:30:33.861Z,37.84
2023-04-10T11:33:05.552Z,37.64
2023-04-10T11:35:36.497Z,37.49
2023-04-10T11:38:15.175Z,37.66
2023-04-10T11:40:58.742Z,37.69
2023-04-10T11:43:29.647Z,37.48
2023-04-10T11:46:07.705Z,37.35
2023-04-10T11:48:39.012Z,37.13
2023-04-10T11:51:10.552Z,36.83
2023-04-10T11:53:41.509Z,36.90
2023-04-10T11:56:18.056Z,36.86
2023-04-10T11:58:48.866Z,36.60
2023-04-10T12:01:21.281Z,36.37
2023-04-10T12:03:52.390Z,36.30
2023-04-10T12:06:23.620Z,36.26
2023-04-10T12:08:54.748Z,36.34
2023-04-10T12:11:26.859Z,36.02
2023-04-10T12:13:58.290Z,36.22
2023-04-10T12:16:29.179Z,35.76
2023-04-10T12:19:00.071Z,35.91
2023-04-10T12:21:31.350Z,35.91
2023-04-10T12:24:02.012Z,35.92
2023-04-10T12:26:32.757Z,35.55
2023-04-10T12:29:03.658Z,35.21
2023-04-10T12:31:35.104Z,35.15
2023-04-10T12:34:08.497Z,35.50
2023-04-10T12:36:40.927Z,35.39
2023-04-10T12:39:23.271Z,35.44
2023-04-10T12:41:54.109Z,35.23
2023-04-10T12:44:25.150Z,35.25
2023-04-10T12:47:02.541Z,35.00
2023-04-10T12:49:33.571Z,34.70
2023-04-10T12:52:04.685Z,34.91
2023-04-10T12:54:36.687Z,34.83
2023-04-10T12:57:08.205Z,34.72
2023-04-10T12:59:39.452Z,34.85
2023-04-10T13:02:10.981Z,34.98
2023-04-10T13:04:43.082Z,34.88
2023-04-10T13:07:14.043Z,34.73
2023-04-10T13:09:44.909Z,34.50
2023-04-10T13:12:16.110Z,34.40
2023-04-10T13:14:47.915Z,34.44
2023-04-10T13:17:18.709Z,34.44
2023-04-10T13:19:49.572Z,34.40
2023-04-10T13:22:20.385Z,34.23
2023-04-10T13:24:51.442Z,33.97
2023-04-10T13:27:22.116Z,33.86
2023-04-10T13:29:52.983Z,34.06
2023-04-10T13:32:23.967Z,34.03
2023-04-10T13:34:57.219Z,33.89
2023-04-10T13:37:28.127Z,33.84
2023-04-10T13:39:59.109Z,34.08
2023-04-10T13:42:30.053Z,34.17
2023-04-10T13:45:01.622Z,34.01
2023-04-10T13:47:32.585Z,34.13
2023-04-10T13:50:03.431Z,33.97
2023-04-10T13:52:34.457Z,33.96
2023-04-10T13:55:05.675Z,34.06
2023-04-10T13:57:36.446Z,33.80
2023-04-10T14:00:08.873Z,33.60
2023-04-10T14:02:39.676Z,33.87
2023-04-10T14:05:11.528Z,33.70
2023-04-10T14:07:42.349Z,33.84
2023-04-10T14:10:13.404Z,33.87
2023-04-10T14:12:44.280Z,33.68
2023-04-10T14:15:15.119Z,33.79
2023-04-10T14:17:45.983Z,33.75
2023-04-10T14:20:16.974Z,33.73
2023-04-10T14:22:48.350Z,33.51
2023-04-10T14:25:19.247Z,33.62
2023-04-10T14:27:50.168Z,33.64
2023-04-10T14:30:20.960Z,33.65
2023-04-10T14:32:51.713Z,33.50
2023-04-10T14:35:22.785Z,33.68
2023-04-10T14:37:53.632Z,33.47
2023-04-10T14:40:24.745Z,33.50
2023-04-10T14:42:55.447Z,33.55
2023-04-10T14:45:26.377Z,33.57
2023-04-10T14:47:57.708Z,33.60
2023-04-10T14:50:29.549Z,33.59
2023-04-10T14:53:01.067Z,33.65
2023-04-10T14:55:31.946Z,33.78
2023-04-10T14:58:04.002Z,33.77
2023-04-10T15:00:35.109Z,33.75
2023-04-10T15:03:06.701Z,33.70
2023-04-10T15:05:38.279Z,33.74
2023-04-10T15:08:11.706Z,33.53
2023-04-10T15:10:42.878Z,33.65
2023-04-10T15:13:13.746Z,33.70
2023-04-10T15:15:45.808Z,33.61
2023-04-10T15:18:16.741Z,33.67
2023-04-10T15:20:47.653Z,33.73
2023-04-10T15:23:18.348Z,33.62
2023-04-10T15:25:49.290Z,33.64
2023-04-10T15:28:20.283Z,33.73
2023-04-10T15:30:54.030Z,33.66
2023-04-10T15:33:26.214Z,33.83
2023-04-10T15:35:57.180Z,33.75
2023-04-10T15:38:28.973Z,33.77
2023-04-10T15:40:59.832Z,33.78
2023-04-10T15:43:33.578Z,33.76
2023-04-10T15:46:04.766Z,33.74
2023-04-10T15:48:35.635Z,33.74
2023-04-10T15:51:06.786Z,33.76
2023-04-10T15:53:37.551Z,33.80
2023-04-10T15:56:09.253Z,33.82
2023-04-10T15:58:40.093Z,33.84
2023-04-10T16:01:11.155Z,33.80
2023-04-10T16:03:42.227Z,33.75
2023-04-10T16:06:13.592Z,33.76
2023-04-10T16:08:44.522Z,33.76
2023-04-10T16:11:16.378Z,33.79
2023-04-10T16:13:47.533Z,33.90
2023-04-10T16:16:19.355Z,33.87
2023-04-10T16:18:52.020Z,33.90
2023-04-10T16:21:23.473Z,33.78
2023-04-10T16:23:56.746Z,33.85
2023-04-10T16:26:27.699Z,33.79
2023-04-10T16:28:58.498Z,33.88
2023-04-10T16:31:31.939Z,33.92
2023-04-10T16:34:02.895Z,33.95
2023-04-10T16:36:39.802Z,33.94
2023-04-10T16:39:10.849Z,34.02
2023-04-10T16:42:03.780Z,34.14
2023-04-10T16:44:41.734Z,34.10
2023-04-10T16:47:12.950Z,34.18
2023-04-10T16:49:45.820Z,34.23
2023-04-10T16:52:16.737Z,34.47
2023-04-10T16:54:50.241Z,34.50
2023-04-10T16:57:23.549Z,34.51
2023-04-10T17:00:10.569Z,34.72
2023-04-10T17:02:43.225Z,34.77
2023-04-10T17:05:14.268Z,34.90
2023-04-10T17:07:45.295Z,35.00
2023-04-10T17:10:16.216Z,34.96
2023-04-10T17:12:46.908Z,35.11
2023-04-10T17:15:18.222Z,35.15
2023-04-10T17:17:50.293Z,35.22
2023-04-10T17:20:22.585Z,35.16
2023-04-10T17:22:53.413Z,35.35
2023-04-10T17:25:25.573Z,35.43
2023-04-10T17:27:56.784Z,35.49
2023-04-10T17:30:27.622Z,35.47
2023-04-10T17:33:00.970Z,35.59
2023-04-10T17:35:33.926Z,35.66
2023-04-10T17:38:05.262Z,35.71
2023-04-10T17:40:40.988Z,35.79
2023-04-10T17:43:11.920Z,35.79
2023-04-10T17:48:50.649Z,35.94
2023-04-10T17:51:21.821Z,36.07
2023-04-10T17:53:59.182Z,36.17
2023-04-10T17:56:35.200Z,36.17
2023-04-10T17:59:17.748Z,36.19
2023-04-10T18:01:49.549Z,36.24
2023-04-10T18:06:45.833Z,36.37
2023-04-10T18:09:16.995Z,36.41
2023-04-10T18:11:49.981Z,36.46
2023-04-10T18:14:20.909Z,36.62
2023-04-10T18:16:51.918Z,36.70
2023-04-10T18:19:22.801Z,36.69
2023-04-10T18:21:53.610Z,36.76
2023-04-10T18:24:26.252Z,36.92
2023-04-10T18:26:57.575Z,36.91
2023-04-10T18:29:30.430Z,37.06
2023-04-10T18:32:01.642Z,37.09
2023-04-10T18:34:32.883Z,37.14
2023-04-10T18:37:04.141Z,37.33
2023-04-10T18:39:36.611Z,37.41
2023-04-10T18:42:09.379Z,37.49
2023-04-10T18:44:40.248Z,37.50
2023-04-10T18:47:11.861Z,37.58
2023-04-10T18:49:42.658Z,37.65
2023-04-10T18:52:13.537Z,37.70
2023-04-10T18:54:44.872Z,37.85
2023-04-10T18:57:15.820Z,37.87
2023-04-10T18:59:46.595Z,37.92
2023-04-10T19:02:17.696Z,37.95
2023-04-10T19:04:49.031Z,38.23
2023-04-10T19:07:20.123Z,38.24
2023-04-10T19:09:51.064Z,38.30
2023-04-10T19:12:21.931Z,38.32
2023-04-10T19:14:52.686Z,38.39
2023-04-10T19:17:25.083Z,38.54
2023-04-10T19:19:57.216Z,38.56
2023-04-10T19:22:28.039Z,38.64
2023-04-10T19:25:02.181Z,38.71
2023-04-10T19:27:32.982Z,38.81
2023-04-10T19:30:03.877Z,38.87
2023-04-10T19:32:34.832Z,38.96
2023-04-10T19:35:06.536Z,39.07
2023-04-10T19:37:37.478Z,39.11
2023-04-10T19:40:10.299Z,39.16
2023-04-10T19:42:41.067Z,39.20
2023-04-10T19:45:13.010Z,39.34
2023-04-10T19:47:43.866Z,39.33
2023-04-10T19:50:14.730Z,39.44
2023-04-10T19:52:45.512Z,39.44
2023-04-10T19:55:18.688Z,39.54
2023-04-10T19:57:50.691Z,39.65
2023-04-10T20:00:21.658Z,39.66
2023-04-10T20:02:52.832Z,39.78
2023-04-10T20:05:23.910Z,39.79
2023-04-10T20:07:55.547Z,39.88
2023-04-10T20:10:26.559Z,39.89
2023-04-10T20:12:57.536Z,40.03
2023-04-10T20:15:28.493Z,40.01
2023-04-10T20:17:59.380Z,40.10
2023-04-10T20:20:30.218Z,40.12
2023-04-10T20:23:01.124Z,40.21
2023-04-10T20:25:31.798Z,40.22
2023-04-10T20:28:02.661Z,40.30
2023-04-10T20:30:33.442Z,40.40
2023-04-10T20:33:04.227Z,40.41
2023-04-10T20:35:34.999Z,40.46
2023-04-10T20:38:05.721Z,40.46
2023-04-10T20:40:36.847Z,40.59
2023-04-10T20:43:11.477Z,40.60
2023-04-10T20:45:42.419Z,40.66
2023-04-10T20:48:13.246Z,40.64
2023-04-10T20:50:49.145Z,40.69
2023-04-10T20:53:20.004Z,40.75
2023-04-10T20:55:54.415Z,40.77
2023-04-10T20:58:25.302Z,40.79
2023-04-10T21:00:56.791Z,40.81
2023-04-10T21:03:27.935Z,40.83
2023-04-10T21:05:59.093Z,40.82
2023-04-10T21:08:30.013Z,40.90
2023-04-10T21:11:00.660Z,40.97
2023-04-10T21:13:31.482Z,40.90
2023-04-10T21:16:02.266Z,41.06
2023-04-10T21:18:33.120Z,41.04
2023-04-10T21:21:03.901Z,41.08
2023-04-10T21:23:34.754Z,41.13
2023-04-10T21:26:05.529Z,41.17
2023-04-10T21:28:36.320Z,41.18
2023-04-10T21:31:07.425Z,41.28
2023-04-10T21:33:38.315Z,41.29
2023-04-10T21:36:09.525Z,41.18
2023-04-10T21:38:40.584Z,41.23
2023-04-10T21:41:11.440Z,41.28
2023-04-10T21:43:43.511Z,41.35
2023-04-10T21:46:14.474Z,41.45
2023-04-10T21:48:45.609Z,41.50
2023-04-10T21:51:16.345Z,41.51
2023-04-10T21:53:48.274Z,41.51
2023-04-10T21:56:19.094Z,41.44
2023-04-10T21:58:49.930Z,41.52
2023-04-10T22:01:20.849Z,41.51
2023-04-10T22:03:53.403Z,41.48
2023-04-10T22:06:24.333Z,41.58
2023-04-10T22:08:55.364Z,41.45
2023-04-10T22:11:26.439Z,41.44
2023-04-10T22:14:00.192Z,41.55
2023-04-10T22:16:33.699Z,41.64
2023-04-10T22:19:04.644Z,41.71
2023-04-10T22:21:35.507Z,41.83
2023-04-10T22:24:06.449Z,41.76
2023-04-10T22:26:37.201Z,41.80
2023-04-10T22:29:07.971Z,41.86
2023-04-10T22:31:38.652Z,41.98
2023-04-10T22:34:10.507Z,41.92
2023-04-10T22:36:41.336Z,41.94
2023-04-10T22:39:12.047Z,41.98
2023-04-10T22:41:44.120Z,41.99
2023-04-10T22:44:15.230Z,42.04
2023-04-10T22:46:48.365Z,42.17
2023-04-10T22:49:19.700Z,42.11
2023-04-10T22:51:50.430Z,42.27
2023-04-10T22:54:21.280Z,42.29
2023-04-10T22:56:52.502Z,42.47
2023-04-10T22:59:23.224Z,42.42
2023-04-10T23:01:53.990Z,42.46
2023-04-10T23:04:24.888Z,42.58
2023-04-10T23:06:55.591Z,42.63
2023-04-10T23:09:26.420Z,42.65
2023-04-10T23:11:57.677Z,42.66
2023-04-10T23:14:28.492Z,42.65
2023-04-10T23:16:59.309Z,42.68
2023-04-10T23:19:30.113Z,42.69
2023-04-10T23:22:01.018Z,42.72
2023-04-10T23:24:31.811Z,42.82
2023-04-10T23:27:03.611Z,42.70
2023-04-10T23:29:34.614Z,42.81
2023-04-10T23:32:05.450Z,42.80
2023-04-10T23:34:36.333Z,42.84
2023-04-10T23:40:48.980Z,42.92
2023-04-10T23:43:19.836Z,43.02
2023-04-10T23:45:50.685Z,42.99
2023-04-10T23:48:21.395Z,43.00
2023-04-10T23:50:52.229Z,43.07
2023-04-10T23:53:23.059Z,43.13
2023-04-10T23:55:53.782Z,43.15
2023-04-10T23:58:24.636Z,43.14
